createdAt,value
2019-01-13T00:00:53.616Z,4.13
2019-01-13T00:01:53.552Z,4.22
2019-01-13T00:02:53.491Z,4.23
2019-01-13T00:03:53.469Z,4.16
2019-01-13T00:04:53.375Z,4.16
2019-01-13T00:05:53.323Z,4.16
2019-01-13T00:06:53.260Z,4.23
2019-01-13T00:07:53.206Z,4.17
2019-01-13T00:08:53.181Z,4.23
2019-01-13T00:09:53.087Z,4.23
2019-01-13T00:10:53.038Z,4.20
2019-01-13T00:11:52.972Z,4.23
2019-01-13T00:12:52.915Z,4.19
2019-01-13T00:13:52.890Z,4.30
2019-01-13T00:14:52.799Z,4.23
2019-01-13T00:15:52.745Z,4.22
2019-01-13T00:16:52.685Z,4.22
2019-01-13T00:17:52.673Z,4.26
2019-01-13T00:18:52.578Z,4.19
2019-01-13T00:19:52.513Z,4.19
2019-01-13T00:20:52.458Z,4.23
2019-01-13T00:21:52.429Z,4.20
2019-01-13T00:22:52.338Z,4.32
2019-01-13T00:23:52.311Z,4.28
2019-01-13T00:24:52.219Z,4.32
2019-01-13T00:25:52.168Z,4.35
2019-01-13T00:26:52.106Z,4.24
2019-01-13T00:27:52.046Z,4.28
2019-01-13T00:28:52.031Z,4.24
2019-01-13T00:29:51.936Z,4.37
2019-01-13T00:30:51.875Z,4.26
2019-01-13T00:31:51.813Z,4.34
2019-01-13T00:32:51.762Z,4.32
2019-01-13T00:33:51.745Z,4.26
2019-01-13T00:34:51.642Z,4.28
2019-01-13T00:35:51.583Z,4.22
2019-01-13T00:36:51.529Z,4.28
2019-01-13T00:37:51.488Z,4.31
2019-01-13T00:38:51.446Z,4.22
2019-01-13T00:39:51.356Z,4.22
2019-01-13T00:40:51.298Z,4.23
2019-01-13T00:41:51.284Z,4.31
2019-01-13T00:42:51.192Z,4.30
2019-01-13T00:43:51.124Z,4.26
2019-01-13T00:44:51.069Z,4.37
2019-01-13T00:45:51.012Z,4.19
2019-01-13T00:46:50.980Z,4.28
2019-01-13T00:47:50.932Z,4.28
2019-01-13T00:48:50.841Z,4.28
2019-01-13T00:49:50.775Z,4.31
2019-01-13T00:50:50.718Z,4.31
2019-01-13T00:51:50.659Z,4.31
2019-01-13T00:52:50.644Z,4.35
2019-01-13T00:53:50.547Z,4.35
2019-01-13T00:54:50.486Z,4.30
2019-01-13T00:55:50.428Z,4.26
2019-01-13T00:56:50.379Z,4.26
2019-01-13T00:57:50.362Z,4.31
2019-01-13T00:58:50.254Z,4.31
2019-01-13T00:59:50.205Z,4.30
2019-01-13T01:00:50.142Z,4.26
2019-01-13T01:01:50.083Z,4.31
2019-01-13T01:02:50.062Z,4.22
2019-01-13T01:03:49.965Z,4.32
2019-01-13T01:04:49.908Z,4.37
2019-01-13T01:05:49.849Z,4.34
2019-01-13T01:06:49.794Z,4.24
2019-01-13T01:07:49.778Z,4.26
2019-01-13T01:08:49.688Z,4.26
2019-01-13T01:09:49.620Z,4.35
2019-01-13T01:10:49.566Z,4.28
2019-01-13T01:11:49.505Z,4.28
2019-01-13T01:12:49.485Z,4.17
2019-01-13T01:13:49.385Z,4.35
2019-01-13T01:14:49.363Z,4.20
2019-01-13T01:15:49.278Z,4.23
2019-01-13T01:16:49.214Z,4.30
2019-01-13T01:17:49.200Z,4.28
2019-01-13T01:18:49.101Z,4.34
2019-01-13T01:19:49.073Z,4.22
2019-01-13T01:20:48.982Z,4.30
2019-01-13T01:21:48.929Z,4.35
2019-01-13T01:22:48.876Z,4.28
2019-01-13T01:23:48.809Z,4.26
2019-01-13T01:24:48.796Z,4.19
2019-01-13T01:25:48.696Z,4.31
2019-01-13T01:26:48.640Z,4.32
2019-01-13T01:27:48.614Z,4.22
2019-01-13T01:28:48.521Z,4.31
2019-01-13T01:29:48.506Z,4.19
2019-01-13T01:30:48.402Z,4.23
2019-01-13T01:31:48.352Z,4.28
2019-01-13T01:32:48.291Z,4.22
2019-01-13T01:33:48.242Z,4.30
2019-01-13T01:34:48.208Z,4.28
2019-01-13T01:35:48.157Z,4.35
2019-01-13T01:36:48.060Z,4.31
2019-01-13T01:37:48.003Z,4.26
2019-01-13T01:38:47.977Z,4.35
2019-01-13T01:39:47.894Z,4.31
2019-01-13T01:40:47.860Z,4.31
2019-01-13T01:41:47.770Z,4.28
2019-01-13T01:42:47.715Z,4.28
2019-01-13T01:43:47.657Z,4.35
2019-01-13T01:44:47.602Z,4.32
2019-01-13T01:45:47.572Z,4.30
2019-01-13T01:46:47.480Z,4.28
2019-01-13T01:47:47.423Z,4.28
2019-01-13T01:48:47.408Z,4.31
2019-01-13T01:49:47.309Z,4.32
2019-01-13T01:50:47.256Z,4.30
2019-01-13T01:51:47.198Z,4.30
2019-01-13T01:52:47.139Z,4.35
2019-01-13T01:53:47.117Z,4.24
2019-01-13T01:54:47.029Z,4.30
2019-01-13T01:55:46.962Z,4.34
2019-01-13T01:56:46.905Z,4.38
2019-01-13T01:57:46.864Z,4.32
2019-01-13T01:58:46.841Z,4.32
2019-01-13T01:59:46.764Z,4.37
2019-01-13T02:00:46.684Z,4.35
2019-01-13T02:01:46.618Z,4.28
2019-01-13T02:02:46.566Z,4.34
2019-01-13T02:03:46.502Z,4.31
2019-01-13T02:04:46.495Z,4.37
2019-01-13T02:05:46.392Z,4.24
2019-01-13T02:06:46.329Z,4.32
2019-01-13T02:07:46.284Z,4.28
2019-01-13T02:08:46.215Z,4.34
2019-01-13T02:09:46.204Z,4.30
2019-01-13T02:10:46.104Z,4.30
2019-01-13T02:11:46.072Z,4.31
2019-01-13T02:12:45.983Z,4.32
2019-01-13T02:13:45.933Z,4.31
2019-01-13T02:14:45.868Z,4.32
2019-01-13T02:15:45.807Z,4.35
2019-01-13T02:16:45.787Z,4.40
2019-01-13T02:17:45.729Z,4.42
2019-01-13T02:18:45.647Z,4.40
2019-01-13T02:19:45.580Z,4.40
2019-01-13T02:20:45.521Z,4.28
2019-01-13T02:21:45.468Z,4.37
2019-01-13T02:22:45.432Z,4.40
2019-01-13T02:23:45.349Z,4.28
2019-01-13T02:24:45.291Z,4.41
2019-01-13T02:25:45.277Z,4.31
2019-01-13T02:26:45.180Z,4.38
2019-01-13T02:27:45.124Z,4.26
2019-01-13T02:28:45.063Z,4.37
2019-01-13T02:29:45.003Z,4.35
2019-01-13T02:30:48.990Z,4.35
2019-01-13T02:31:44.922Z,4.26
2019-01-13T02:32:44.830Z,4.37
2019-01-13T02:33:44.804Z,4.34
2019-01-13T02:34:44.722Z,4.37
2019-01-13T02:35:44.667Z,4.28
2019-01-13T02:36:44.603Z,4.37
2019-01-13T02:37:44.549Z,4.34
2019-01-13T02:38:44.518Z,4.37
2019-01-13T02:39:44.426Z,4.35
2019-01-13T02:40:44.422Z,4.28
2019-01-13T02:41:44.318Z,4.24
2019-01-13T02:42:44.255Z,4.37
2019-01-13T02:43:44.230Z,4.35
2019-01-13T02:44:44.136Z,4.35
2019-01-13T02:45:44.101Z,4.28
2019-01-13T02:46:44.026Z,4.31
2019-01-13T02:47:43.967Z,4.32
2019-01-13T02:48:43.938Z,4.30
2019-01-13T02:49:43.854Z,4.31
2019-01-13T02:50:43.798Z,4.28
2019-01-13T02:51:43.735Z,4.32
2019-01-13T02:52:43.680Z,4.37
2019-01-13T02:53:43.660Z,4.38
2019-01-13T02:54:43.563Z,4.30
2019-01-13T02:55:43.504Z,4.31
2019-01-13T02:56:44.039Z,4.24
2019-01-13T02:57:43.422Z,4.32
2019-01-13T02:58:43.375Z,4.20
2019-01-13T02:59:43.274Z,4.26
2019-01-13T03:00:43.276Z,4.26
2019-01-13T03:01:43.162Z,4.19
2019-01-13T03:02:43.121Z,4.12
2019-01-13T03:03:43.092Z,4.22
2019-01-13T03:04:43.003Z,4.17
2019-01-13T03:05:42.928Z,4.10
2019-01-13T03:06:42.869Z,4.20
2019-01-13T03:07:42.811Z,4.12
2019-01-13T03:08:42.780Z,4.17
2019-01-13T03:09:42.700Z,4.10
2019-01-13T03:10:42.639Z,4.08
2019-01-13T03:11:42.618Z,4.04
2019-01-13T03:12:42.532Z,4.01
2019-01-13T03:13:42.467Z,3.96
2019-01-13T03:14:42.409Z,3.96
2019-01-13T03:15:42.353Z,3.96
2019-01-13T03:16:42.326Z,3.96
2019-01-13T03:17:42.239Z,3.92
2019-01-13T03:18:42.213Z,3.91
2019-01-13T03:19:42.123Z,3.94
2019-01-13T03:20:42.062Z,3.92
2019-01-13T03:21:42.007Z,3.99
2019-01-13T03:22:41.946Z,3.96
2019-01-13T03:23:41.931Z,3.91
2019-01-13T03:24:41.836Z,3.95
2019-01-13T03:25:41.782Z,3.98
2019-01-13T03:26:41.726Z,4.05
2019-01-13T03:27:41.657Z,3.91
2019-01-13T03:28:41.635Z,4.02
2019-01-13T03:29:41.546Z,4.04
2019-01-13T03:30:41.527Z,4.08
2019-01-13T03:31:41.433Z,4.10
2019-01-13T03:32:41.375Z,4.08
2019-01-13T03:33:41.311Z,4.19
2019-01-13T03:34:41.261Z,4.19
2019-01-13T03:35:41.232Z,4.17
2019-01-13T03:36:41.146Z,4.08
2019-01-13T03:37:41.080Z,4.13
2019-01-13T03:38:41.056Z,4.23
2019-01-13T03:39:40.963Z,4.13
2019-01-13T03:40:40.905Z,4.19
2019-01-13T03:41:40.881Z,4.26
2019-01-13T03:42:40.791Z,4.22
2019-01-13T03:43:40.747Z,4.24
2019-01-13T03:44:40.681Z,4.30
2019-01-13T03:45:40.622Z,4.28
2019-01-13T03:46:40.602Z,4.26
2019-01-13T03:47:40.534Z,4.30
2019-01-13T03:48:40.449Z,4.24
2019-01-13T03:49:40.386Z,4.20
2019-01-13T03:50:40.331Z,4.26
2019-01-13T03:51:40.287Z,4.22
2019-01-13T03:52:40.246Z,4.22
2019-01-13T03:53:40.201Z,4.31
2019-01-13T03:54:40.103Z,4.28
2019-01-13T03:55:40.051Z,4.34
2019-01-13T03:56:39.986Z,4.32
2019-01-13T03:57:39.961Z,4.30
2019-01-13T03:58:39.865Z,4.32
2019-01-13T03:59:39.812Z,4.34
2019-01-13T04:00:39.761Z,4.28
2019-01-13T04:01:39.724Z,4.30
2019-01-13T04:02:39.678Z,4.35
2019-01-13T04:03:39.576Z,4.35
2019-01-13T04:04:39.523Z,4.42
2019-01-13T04:05:39.462Z,4.40
2019-01-13T04:06:39.417Z,4.40
2019-01-13T04:07:39.377Z,4.37
2019-01-13T04:08:39.287Z,4.38
2019-01-13T04:09:39.231Z,4.38
2019-01-13T04:10:39.171Z,4.32
2019-01-13T04:11:39.146Z,4.35
2019-01-13T04:12:39.067Z,4.40
2019-01-13T04:13:39.036Z,4.40
2019-01-13T04:14:38.946Z,4.37
2019-01-13T04:15:38.891Z,4.40
2019-01-13T04:16:38.826Z,4.37
2019-01-13T04:17:38.771Z,4.35
2019-01-13T04:18:38.750Z,4.45
2019-01-13T04:19:38.654Z,4.34
2019-01-13T04:20:38.596Z,4.37
2019-01-13T04:21:38.539Z,4.41
2019-01-13T04:22:38.520Z,4.41
2019-01-13T04:23:38.465Z,4.40
2019-01-13T04:24:38.366Z,4.37
2019-01-13T04:25:38.328Z,4.40
2019-01-13T04:26:38.255Z,4.38
2019-01-13T04:27:38.195Z,4.45
2019-01-13T04:28:38.170Z,4.48
2019-01-13T04:29:38.077Z,4.37
2019-01-13T04:30:38.030Z,4.38
2019-01-13T04:31:37.986Z,4.35
2019-01-13T04:32:37.907Z,4.34
2019-01-13T04:33:37.892Z,4.38
2019-01-13T04:34:37.798Z,4.35
2019-01-13T04:35:37.738Z,4.35
2019-01-13T04:36:37.676Z,4.40
2019-01-13T04:37:37.617Z,4.41
2019-01-13T04:38:37.588Z,4.40
2019-01-13T04:39:37.498Z,4.42
2019-01-13T04:40:37.450Z,4.41
2019-01-13T04:41:37.393Z,4.42
2019-01-13T04:42:37.329Z,4.53
2019-01-13T04:43:37.311Z,4.35
2019-01-13T04:44:37.215Z,4.41
2019-01-13T04:45:37.155Z,4.41
2019-01-13T04:46:38.600Z,4.38
2019-01-13T04:47:37.061Z,4.44
2019-01-13T04:48:37.024Z,4.42
2019-01-13T04:49:36.939Z,4.44
2019-01-13T04:50:37.844Z,4.42
2019-01-13T04:51:36.808Z,4.38
2019-01-13T04:52:36.756Z,4.38
2019-01-13T04:53:36.735Z,4.38
2019-01-13T04:54:36.669Z,4.38
2019-01-13T04:55:36.581Z,4.45
2019-01-13T04:56:36.521Z,4.45
2019-01-13T04:57:36.465Z,4.52
2019-01-13T04:58:36.411Z,4.40
2019-01-13T04:59:36.384Z,4.45
2019-01-13T05:00:36.320Z,4.44
2019-01-13T05:01:36.957Z,4.44
2019-01-13T05:02:36.182Z,4.45
2019-01-13T05:03:36.151Z,4.45
2019-01-13T05:04:36.062Z,4.49
2019-01-13T05:05:36.036Z,4.50
2019-01-13T05:06:35.959Z,4.41
2019-01-13T05:07:35.890Z,4.44
2019-01-13T05:08:35.835Z,4.55
2019-01-13T05:09:35.808Z,4.48
2019-01-13T05:10:35.719Z,4.52
2019-01-13T05:11:35.658Z,4.52
2019-01-13T05:12:35.634Z,4.42
2019-01-13T05:13:35.544Z,4.50
2019-01-13T05:14:35.486Z,4.45
2019-01-13T05:15:35.434Z,4.44
2019-01-13T05:16:35.371Z,4.45
2019-01-13T05:17:35.346Z,4.42
2019-01-13T05:18:35.259Z,4.42
2019-01-13T05:19:35.201Z,4.48
2019-01-13T05:20:35.140Z,4.45
2019-01-13T05:21:35.082Z,4.42
2019-01-13T05:22:35.068Z,4.48
2019-01-13T05:23:35.847Z,4.45
2019-01-13T05:24:34.943Z,4.40
2019-01-13T05:25:34.854Z,4.48
2019-01-13T05:26:34.793Z,4.41
2019-01-13T05:27:34.743Z,4.40
2019-01-13T05:28:34.714Z,4.48
2019-01-13T05:29:34.657Z,4.41
2019-01-13T05:30:34.562Z,4.40
2019-01-13T05:31:41.745Z,4.41
2019-01-13T05:32:34.485Z,4.44
2019-01-13T05:33:34.396Z,4.48
2019-01-13T05:34:34.342Z,4.42
2019-01-13T05:35:34.306Z,4.48
2019-01-13T05:36:34.221Z,4.48
2019-01-13T05:37:34.167Z,4.41
2019-01-13T05:38:34.141Z,4.41
2019-01-13T05:39:34.061Z,4.41
2019-01-13T05:40:33.993Z,4.41
2019-01-13T05:41:33.939Z,4.44
2019-01-13T05:42:33.875Z,4.41
2019-01-13T05:43:33.842Z,4.38
2019-01-13T05:44:33.760Z,4.50
2019-01-13T05:45:33.715Z,4.40
2019-01-13T05:46:33.647Z,4.52
2019-01-13T05:47:33.596Z,4.45
2019-01-13T05:48:33.564Z,4.41
2019-01-13T05:49:33.474Z,4.49
2019-01-13T05:50:33.416Z,4.50
2019-01-13T05:51:33.361Z,4.53
2019-01-13T05:52:33.302Z,4.50
2019-01-13T05:53:33.288Z,4.48
2019-01-13T05:54:33.186Z,4.52
2019-01-13T05:55:33.134Z,4.49
2019-01-13T05:56:33.078Z,4.45
2019-01-13T05:57:33.046Z,4.53
2019-01-13T05:58:32.966Z,4.48
2019-01-13T05:59:32.901Z,4.50
2019-01-13T06:00:32.873Z,4.42
2019-01-13T06:01:34.039Z,4.44
2019-01-13T06:02:32.759Z,4.45
2019-01-13T06:03:32.668Z,4.40
2019-01-13T06:04:32.628Z,4.50
2019-01-13T06:05:32.602Z,4.48
2019-01-13T06:06:32.501Z,4.53
2019-01-13T06:07:32.439Z,4.50
2019-01-13T06:08:32.379Z,4.42
2019-01-13T06:09:32.323Z,4.49
2019-01-13T06:10:32.299Z,4.48
2019-01-13T06:11:32.211Z,4.49
2019-01-13T06:12:32.153Z,4.53
2019-01-13T06:13:32.124Z,4.52
2019-01-13T06:14:32.045Z,4.42
2019-01-13T06:15:31.983Z,4.50
2019-01-13T06:16:31.920Z,4.49
2019-01-13T06:17:31.864Z,4.58
2019-01-13T06:18:31.848Z,4.49
2019-01-13T06:19:31.744Z,4.56
2019-01-13T06:20:31.706Z,4.56
2019-01-13T06:21:31.666Z,4.56
2019-01-13T06:22:31.575Z,4.58
2019-01-13T06:23:31.521Z,4.50
2019-01-13T06:24:31.458Z,4.41
2019-01-13T06:25:31.434Z,4.53
2019-01-13T06:26:31.344Z,4.48
2019-01-13T06:27:31.332Z,4.48
2019-01-13T06:28:31.229Z,4.49
2019-01-13T06:29:31.170Z,4.52
2019-01-13T06:30:31.117Z,4.59
2019-01-13T06:31:31.085Z,4.59
2019-01-13T06:32:31.041Z,4.52
2019-01-13T06:33:30.947Z,4.62
2019-01-13T06:34:30.890Z,4.53
2019-01-13T06:35:30.831Z,4.53
2019-01-13T06:36:30.767Z,4.58
2019-01-13T06:37:30.772Z,4.56
2019-01-13T06:38:30.653Z,4.58
2019-01-13T06:39:30.596Z,4.55
2019-01-13T06:40:30.542Z,4.56
2019-01-13T06:41:30.483Z,4.55
2019-01-13T06:42:30.470Z,4.66
2019-01-13T06:43:30.395Z,4.70
2019-01-13T06:44:30.318Z,4.63
2019-01-13T06:45:30.285Z,4.63
2019-01-13T06:46:30.199Z,4.63
2019-01-13T06:47:30.137Z,4.66
2019-01-13T06:48:30.110Z,4.68
2019-01-13T06:49:30.025Z,4.62
2019-01-13T06:50:30.004Z,4.55
2019-01-13T06:51:29.905Z,4.68
2019-01-13T06:52:29.850Z,4.66
2019-01-13T06:53:29.801Z,4.67
2019-01-13T06:54:29.744Z,4.71
2019-01-13T06:55:29.711Z,4.68
2019-01-13T06:56:29.619Z,4.70
2019-01-13T06:57:29.560Z,4.66
2019-01-13T06:58:29.505Z,4.73
2019-01-13T06:59:29.490Z,4.66
2019-01-13T07:00:29.389Z,4.70
2019-01-13T07:01:29.343Z,4.68
2019-01-13T07:02:29.275Z,4.71
2019-01-13T07:03:29.219Z,4.73
2019-01-13T07:04:29.198Z,4.73
2019-01-13T07:05:29.103Z,4.75
2019-01-13T07:06:29.046Z,4.82
2019-01-13T07:07:28.993Z,4.74
2019-01-13T07:08:28.929Z,4.77
2019-01-13T07:09:28.933Z,4.86
2019-01-13T07:10:28.815Z,4.77
2019-01-13T07:11:28.764Z,4.77
2019-01-13T07:12:28.702Z,4.78
2019-01-13T07:13:28.644Z,4.80
2019-01-13T07:14:28.621Z,4.78
2019-01-13T07:15:28.560Z,4.86
2019-01-13T07:16:28.472Z,4.92
2019-01-13T07:17:28.417Z,4.80
2019-01-13T07:18:28.358Z,4.82
2019-01-13T07:19:28.307Z,4.78
2019-01-13T07:20:28.287Z,4.84
2019-01-13T07:21:28.185Z,4.87
2019-01-13T07:22:28.125Z,4.80
2019-01-13T07:23:28.073Z,4.86
2019-01-13T07:24:28.018Z,4.82
2019-01-13T07:25:27.996Z,4.84
2019-01-13T07:26:27.895Z,4.80
2019-01-13T07:27:27.849Z,4.84
2019-01-13T07:28:27.785Z,4.78
2019-01-13T07:29:27.726Z,4.87
2019-01-13T07:30:27.710Z,4.94
2019-01-13T07:31:27.618Z,4.92
2019-01-13T07:32:27.555Z,4.87
2019-01-13T07:33:27.529Z,4.92
2019-01-13T07:34:27.454Z,4.90
2019-01-13T07:35:27.388Z,4.87
2019-01-13T07:36:27.361Z,4.90
2019-01-13T07:37:27.266Z,4.92
2019-01-13T07:38:27.215Z,4.84
2019-01-13T07:39:27.151Z,4.80
2019-01-13T07:40:27.094Z,4.82
2019-01-13T07:41:27.071Z,4.82
2019-01-13T07:42:26.979Z,4.89
2019-01-13T07:43:26.970Z,4.89
2019-01-13T07:44:26.899Z,4.86
2019-01-13T07:45:26.808Z,4.90
2019-01-13T07:46:26.759Z,4.90
2019-01-13T07:47:26.699Z,4.90
2019-01-13T07:48:26.675Z,4.94
2019-01-13T07:49:26.583Z,4.93
2019-01-13T07:50:26.527Z,4.94
2019-01-13T07:51:26.462Z,4.90
2019-01-13T07:52:26.478Z,4.96
2019-01-13T07:53:26.503Z,4.92
2019-01-13T07:54:26.304Z,4.94
2019-01-13T07:55:26.255Z,4.97
2019-01-13T07:56:26.185Z,4.87
2019-01-13T07:57:26.152Z,4.97
2019-01-13T07:58:26.102Z,4.94
2019-01-13T07:59:26.016Z,4.90
2019-01-13T08:00:25.966Z,4.90
2019-01-13T08:01:25.901Z,4.92
2019-01-13T08:02:25.869Z,4.92
2019-01-13T08:03:25.866Z,5.00
2019-01-13T08:04:25.804Z,4.89
2019-01-13T08:05:25.713Z,4.90
2019-01-13T08:06:25.638Z,4.97
2019-01-13T08:07:25.585Z,4.97
2019-01-13T08:08:25.517Z,5.04
2019-01-13T08:09:25.447Z,4.97
2019-01-13T08:10:25.380Z,5.02
2019-01-13T08:11:25.354Z,4.84
2019-01-13T08:12:25.260Z,5.04
2019-01-13T08:13:25.233Z,4.87
2019-01-13T08:14:25.142Z,5.00
2019-01-13T08:15:25.083Z,4.90
2019-01-13T08:16:25.028Z,4.89
2019-01-13T08:17:24.970Z,5.02
2019-01-13T08:18:24.947Z,4.89
2019-01-13T08:19:25.061Z,5.02
2019-01-13T08:20:24.804Z,4.99
2019-01-13T08:21:24.745Z,4.97
2019-01-13T08:22:24.684Z,4.97
2019-01-13T08:23:24.665Z,4.92
2019-01-13T08:24:24.570Z,4.99
2019-01-13T08:25:24.521Z,5.02
2019-01-13T08:26:24.455Z,5.00
2019-01-13T08:27:24.394Z,4.99
2019-01-13T08:28:24.369Z,5.05
2019-01-13T08:29:24.287Z,5.07
2019-01-13T08:30:24.264Z,5.04
2019-01-13T08:31:24.164Z,5.07
2019-01-13T08:32:25.127Z,5.12
2019-01-13T08:33:24.052Z,5.02
2019-01-13T08:34:23.995Z,5.11
2019-01-13T08:35:23.969Z,5.08
2019-01-13T08:36:23.877Z,5.07
2019-01-13T08:37:23.822Z,5.07
2019-01-13T08:38:23.770Z,5.08
2019-01-13T08:39:23.707Z,5.05
2019-01-13T08:40:23.693Z,5.07
2019-01-13T08:41:23.596Z,5.07
2019-01-13T08:42:23.537Z,5.07
2019-01-13T08:43:23.474Z,5.10
2019-01-13T08:44:23.449Z,5.05
2019-01-13T08:45:23.365Z,5.08
2019-01-13T08:46:23.300Z,5.14
2019-01-13T08:47:23.279Z,5.12
2019-01-13T08:48:23.190Z,5.12
2019-01-13T08:49:23.134Z,5.11
2019-01-13T08:50:23.107Z,5.17
2019-01-13T08:51:23.017Z,5.15
2019-01-13T08:52:23.010Z,5.15
2019-01-13T08:53:22.910Z,5.25
2019-01-13T08:54:22.843Z,5.23
2019-01-13T08:55:22.794Z,5.28
2019-01-13T08:56:22.730Z,5.30
2019-01-13T08:57:22.725Z,5.21
2019-01-13T08:58:22.623Z,5.28
2019-01-13T08:59:22.566Z,5.26
2019-01-13T09:00:22.502Z,5.25
2019-01-13T09:01:22.476Z,5.20
2019-01-13T09:02:22.419Z,5.23
2019-01-13T09:03:22.329Z,5.23
2019-01-13T09:04:22.272Z,5.21
2019-01-13T09:05:22.216Z,5.25
2019-01-13T09:06:22.171Z,5.25
2019-01-13T09:07:22.130Z,5.30
2019-01-13T09:08:22.049Z,5.20
2019-01-13T09:09:22.030Z,5.28
2019-01-13T09:10:21.935Z,5.21
2019-01-13T09:11:21.868Z,5.28
2019-01-13T09:12:21.815Z,5.25
2019-01-13T09:13:21.764Z,5.26
2019-01-13T09:14:21.742Z,5.30
2019-01-13T09:15:21.649Z,5.28
2019-01-13T09:16:21.584Z,5.20
2019-01-13T09:17:21.530Z,5.36
2019-01-13T09:18:21.474Z,5.26
2019-01-13T09:19:21.452Z,5.28
2019-01-13T09:20:21.404Z,5.39
2019-01-13T09:21:21.307Z,5.28
2019-01-13T09:22:21.244Z,5.32
2019-01-13T09:23:21.197Z,5.36
2019-01-13T09:24:21.134Z,5.30
2019-01-13T09:25:21.117Z,5.39
2019-01-13T09:26:21.021Z,5.35
2019-01-13T09:27:20.990Z,5.38
2019-01-13T09:28:20.901Z,5.43
2019-01-13T09:29:20.845Z,5.38
2019-01-13T09:30:20.783Z,5.39
2019-01-13T09:31:20.740Z,5.38
2019-01-13T09:32:20.723Z,5.43
2019-01-13T09:33:20.615Z,5.39
2019-01-13T09:34:20.566Z,5.41
2019-01-13T09:35:20.499Z,5.41
2019-01-13T09:36:20.477Z,5.41
2019-01-13T09:37:20.386Z,5.44
2019-01-13T09:38:20.328Z,5.36
2019-01-13T09:39:20.281Z,5.46
2019-01-13T09:40:20.223Z,5.46
2019-01-13T09:41:20.196Z,5.46
2019-01-13T09:42:20.101Z,5.41
2019-01-13T09:43:20.046Z,5.47
2019-01-13T09:44:19.988Z,5.51
2019-01-13T09:45:19.968Z,5.43
2019-01-13T09:46:19.872Z,5.43
2019-01-13T09:47:19.829Z,5.53
2019-01-13T09:48:19.773Z,5.48
2019-01-13T09:49:19.701Z,5.44
2019-01-13T09:50:19.683Z,5.54
2019-01-13T09:51:19.594Z,5.48
2019-01-13T09:52:19.569Z,5.51
2019-01-13T09:53:19.481Z,5.57
2019-01-13T09:54:19.418Z,5.62
2019-01-13T09:55:19.368Z,5.59
2019-01-13T09:56:19.316Z,5.64
2019-01-13T09:57:19.290Z,5.54
2019-01-13T09:58:19.192Z,5.56
2019-01-13T09:59:19.134Z,5.54
2019-01-13T10:00:19.080Z,5.56
2019-01-13T10:01:19.042Z,5.50
2019-01-13T10:02:19.014Z,5.54
2019-01-13T10:03:18.928Z,5.53
2019-01-13T10:04:18.853Z,5.53
2019-01-13T10:05:18.795Z,5.57
2019-01-13T10:06:18.739Z,5.61
2019-01-13T10:07:18.711Z,5.54
2019-01-13T10:08:18.622Z,5.56
2019-01-13T10:09:18.601Z,5.51
2019-01-13T10:10:18.513Z,5.56
2019-01-13T10:11:18.484Z,5.59
2019-01-13T10:12:18.399Z,5.57
2019-01-13T10:13:18.336Z,5.59
2019-01-13T10:14:18.284Z,5.53
2019-01-13T10:15:18.229Z,5.66
2019-01-13T10:16:18.202Z,5.62
2019-01-13T10:17:18.128Z,5.61
2019-01-13T10:18:18.059Z,5.62
2019-01-13T10:19:18.000Z,5.61
2019-01-13T10:20:17.943Z,5.59
2019-01-13T10:21:17.919Z,5.61
2019-01-13T10:22:17.829Z,5.62
2019-01-13T10:23:17.769Z,5.59
2019-01-13T10:24:17.742Z,5.66
2019-01-13T10:25:17.660Z,5.66
2019-01-13T10:26:17.598Z,5.62
2019-01-13T10:27:17.544Z,5.64
2019-01-13T10:28:17.484Z,5.61
2019-01-13T10:29:17.494Z,5.68
2019-01-13T10:30:17.373Z,5.61
2019-01-13T10:31:17.315Z,5.62
2019-01-13T10:32:17.266Z,5.65
2019-01-13T10:33:17.233Z,5.66
2019-01-13T10:34:17.190Z,5.61
2019-01-13T10:35:17.097Z,5.65
2019-01-13T10:36:17.030Z,5.71
2019-01-13T10:37:16.973Z,5.68
2019-01-13T10:38:16.919Z,5.66
2019-01-13T10:39:16.894Z,5.69
2019-01-13T10:40:16.824Z,5.71
2019-01-13T10:41:16.748Z,5.66
2019-01-13T10:42:16.727Z,5.62
2019-01-13T10:43:16.633Z,5.62
2019-01-13T10:44:16.624Z,5.65
2019-01-13T10:45:16.520Z,5.72
2019-01-13T10:46:16.464Z,5.69
2019-01-13T10:47:16.429Z,5.69
2019-01-13T10:48:16.348Z,5.68
2019-01-13T10:49:16.325Z,5.66
2019-01-13T10:50:16.235Z,5.73
2019-01-13T10:51:16.213Z,5.69
2019-01-13T10:52:16.121Z,5.72
2019-01-13T10:53:16.062Z,5.76
2019-01-13T10:54:16.010Z,5.73
2019-01-13T10:55:15.948Z,5.75
2019-01-13T10:56:15.925Z,5.69
2019-01-13T10:57:15.846Z,5.68
2019-01-13T10:58:15.782Z,5.66
2019-01-13T10:59:15.720Z,5.68
2019-01-13T11:00:15.667Z,5.75
2019-01-13T11:01:15.636Z,5.68
2019-01-13T11:02:15.556Z,5.76
2019-01-13T11:03:15.491Z,5.73
2019-01-13T11:04:15.439Z,5.83
2019-01-13T11:05:15.396Z,5.71
2019-01-13T11:06:15.354Z,5.80
2019-01-13T11:07:15.278Z,5.76
2019-01-13T11:08:15.209Z,5.75
2019-01-13T11:09:15.156Z,5.89
2019-01-13T11:10:15.096Z,5.75
2019-01-13T11:11:15.071Z,5.80
2019-01-13T11:12:14.985Z,5.87
2019-01-13T11:13:14.936Z,5.82
2019-01-13T11:14:14.869Z,5.80
2019-01-13T11:15:21.241Z,5.83
2019-01-13T11:16:14.794Z,5.76
2019-01-13T11:17:14.699Z,5.83
2019-01-13T11:18:14.647Z,5.87
2019-01-13T11:19:14.585Z,5.90
2019-01-13T11:20:14.530Z,5.87
2019-01-13T11:21:14.503Z,5.84
2019-01-13T11:22:14.418Z,5.91
2019-01-13T11:23:14.367Z,5.91
2019-01-13T11:24:14.337Z,5.98
2019-01-13T11:25:14.289Z,5.98
2019-01-13T11:26:14.189Z,5.97
2019-01-13T11:27:14.140Z,5.90
2019-01-13T11:28:14.076Z,5.89
2019-01-13T11:29:14.023Z,5.93
2019-01-13T11:30:13.996Z,5.86
2019-01-13T11:31:13.907Z,5.97
2019-01-13T11:32:13.888Z,5.94
2019-01-13T11:33:13.795Z,6.02
2019-01-13T11:34:13.738Z,5.98
2019-01-13T11:35:13.681Z,6.07
2019-01-13T11:36:13.656Z,6.02
2019-01-13T11:37:13.571Z,6.04
2019-01-13T11:38:13.526Z,6.07
2019-01-13T11:39:13.491Z,6.04
2019-01-13T11:40:13.421Z,6.07
2019-01-13T11:41:13.348Z,6.08
2019-01-13T11:42:13.288Z,6.02
2019-01-13T11:43:13.262Z,6.07
2019-01-13T11:44:13.178Z,6.05
2019-01-13T11:45:13.116Z,5.98
2019-01-13T11:46:13.064Z,6.07
2019-01-13T11:47:13.011Z,6.01
2019-01-13T11:48:12.981Z,6.08
2019-01-13T11:49:12.891Z,6.08
2019-01-13T11:50:12.834Z,6.02
2019-01-13T11:51:12.779Z,6.07
2019-01-13T11:52:12.726Z,6.11
2019-01-13T11:53:12.703Z,6.01
2019-01-13T11:54:12.607Z,6.04
2019-01-13T11:55:12.574Z,6.07
2019-01-13T11:56:13.332Z,6.05
2019-01-13T11:57:12.448Z,6.05
2019-01-13T11:58:12.415Z,6.07
2019-01-13T11:59:12.342Z,6.11
2019-01-13T12:00:12.272Z,6.05
2019-01-13T12:01:12.214Z,6.02
2019-01-13T12:02:12.153Z,6.05
2019-01-13T12:03:16.715Z,6.12
2019-01-13T12:04:12.043Z,6.11
2019-01-13T12:05:12.002Z,6.05
2019-01-13T12:06:11.929Z,6.14
2019-01-13T12:07:11.905Z,6.12
2019-01-13T12:08:11.850Z,6.04
2019-01-13T12:09:11.766Z,6.11
2019-01-13T12:10:11.701Z,6.12
2019-01-13T12:11:11.673Z,6.05
2019-01-13T12:12:11.601Z,6.17
2019-01-13T12:13:11.569Z,6.14
2019-01-13T12:14:11.479Z,6.05
2019-01-13T12:15:11.418Z,6.08
2019-01-13T12:16:11.396Z,6.04
2019-01-13T12:17:11.308Z,6.14
2019-01-13T12:18:11.304Z,6.08
2019-01-13T12:19:11.199Z,6.16
2019-01-13T12:20:11.135Z,6.17
2019-01-13T12:21:11.080Z,6.09
2019-01-13T12:22:11.056Z,6.17
2019-01-13T12:23:10.969Z,6.16
2019-01-13T12:24:10.913Z,6.12
2019-01-13T12:25:10.888Z,6.16
2019-01-13T12:26:10.802Z,6.08
2019-01-13T12:27:10.741Z,6.14
2019-01-13T12:28:10.693Z,6.16
2019-01-13T12:29:10.633Z,6.19
2019-01-13T12:30:10.616Z,6.12
2019-01-13T12:31:10.515Z,6.16
2019-01-13T12:32:10.459Z,6.08
2019-01-13T12:33:10.408Z,6.09
2019-01-13T12:34:10.345Z,6.12
2019-01-13T12:35:10.328Z,6.11
2019-01-13T12:36:10.265Z,6.11
2019-01-13T12:37:10.188Z,6.16
2019-01-13T12:38:10.121Z,6.16
2019-01-13T12:39:10.062Z,6.17
2019-01-13T12:40:10.006Z,6.12
2019-01-13T12:41:09.983Z,6.14
2019-01-13T12:42:09.900Z,6.19
2019-01-13T12:43:09.840Z,6.19
2019-01-13T12:44:09.781Z,6.20
2019-01-13T12:45:09.724Z,6.22
2019-01-13T12:46:09.703Z,6.30
2019-01-13T12:47:09.615Z,6.24
2019-01-13T12:48:09.559Z,6.26
2019-01-13T12:49:09.559Z,6.24
2019-01-13T12:50:09.444Z,6.28
2019-01-13T12:51:09.402Z,6.30
2019-01-13T12:52:09.330Z,6.33
2019-01-13T12:53:09.273Z,6.33
2019-01-13T12:54:09.252Z,6.31
2019-01-13T12:55:09.200Z,6.27
2019-01-13T12:56:09.108Z,6.27
2019-01-13T12:57:09.051Z,6.33
2019-01-13T12:58:08.994Z,6.33
2019-01-13T12:59:08.937Z,6.33
2019-01-13T13:00:08.914Z,6.31
2019-01-13T13:01:08.836Z,6.36
2019-01-13T13:02:08.777Z,6.26
2019-01-13T13:03:08.765Z,6.28
2019-01-13T13:04:08.658Z,6.22
2019-01-13T13:05:08.633Z,6.26
2019-01-13T13:06:08.545Z,6.26
2019-01-13T13:07:08.530Z,6.24
2019-01-13T13:08:08.475Z,6.38
2019-01-13T13:09:08.375Z,6.42
2019-01-13T13:10:08.359Z,6.30
2019-01-13T13:11:08.300Z,6.35
2019-01-13T13:12:08.208Z,6.41
2019-01-13T13:13:08.147Z,6.39
2019-01-13T13:14:08.097Z,6.38
2019-01-13T13:15:08.035Z,6.41
2019-01-13T13:16:08.905Z,6.42
2019-01-13T13:17:07.928Z,6.45
2019-01-13T13:18:07.867Z,6.48